Time;durP1;ratioP1;P1;durP2;ratioP2;P2;SDS_P1;SDS_P2;PMS_P1;PMS_P2;Temp;Humidity;BMP_temperature;BMP_pressure;BME280_temperature;BME280_humidity;BME280_pressure;Samples;Min_cycle;Max_cycle;Signal;HPM_P1;HPM_P2
2022/05/17 03:02:20;;;;;;;25.10;9.10;;;14.00;99.90;;;;;;5111995;23;20479;-80
2022/05/17 03:04:45;;;;;;;17.63;8.45;;;14.00;99.90;;;;;;4959873;28;20043;-79
2022/05/17 03:07:11;;;;;;;23.25;9.05;;;14.00;99.90;;;;;;4959976;28;20102;-80
2022/05/17 03:09:36;;;;;;;25.10;9.18;;;14.00;99.90;;;;;;4959893;28;20085;-79
2022/05/17 03:12:02;;;;;;;22.02;8.32;;;14.00;99.90;;;;;;4959227;28;20073;-78
2022/05/17 03:14:29;;;;;;;22.55;9.43;;;13.90;99.90;;;;;;4959977;28;20031;-80
2022/05/17 03:16:54;;;;;;;20.85;8.15;;;13.90;99.90;;;;;;4958648;28;20083;-82
2022/05/17 03:19:20;;;;;;;19.60;7.97;;;13.90;99.90;;;;;;4976056;28;20038;-80
2022/05/17 03:21:47;;;;;;;21.23;9.10;;;13.90;99.90;;;;;;4958535;28;20042;-81
2022/05/17 03:24:13;;;;;;;24.92;8.63;;;13.90;99.90;;;;;;4958395;28;20490;-81
2022/05/17 03:26:39;;;;;;;19.30;8.73;;;13.90;99.90;;;;;;4958944;28;20050;-81
2022/05/17 03:29:04;;;;;;;22.02;9.15;;;13.90;99.90;;;;;;4958567;28;20051;-83
2022/05/17 03:31:30;;;;;;;23.05;8.70;;;13.90;99.90;;;;;;4975841;28;20506;-82
2022/05/17 03:33:56;;;;;;;24.08;10.13;;;13.90;99.90;;;;;;4958217;28;20402;-81
2022/05/17 03:36:22;;;;;;;23.58;8.65;;;13.80;99.90;;;;;;4958282;28;20053;-80
2022/05/17 03:38:48;;;;;;;23.48;9.45;;;13.80;99.90;;;;;;4958103;28;20046;-81
2022/05/17 03:41:13;;;;;;;22.95;9.32;;;13.80;99.90;;;;;;4942099;28;20429;-81
2022/05/17 03:43:39;;;;;;;23.33;9.65;;;13.80;99.90;;;;;;4958014;28;20179;-80
2022/05/17 03:46:08;;;;;;;26.10;9.40;;;13.80;99.90;;;;;;4975378;28;20089;-81
2022/05/17 03:48:34;;;;;;;23.75;10.15;;;13.80;99.90;;;;;;4958184;28;20390;-82
2022/05/17 03:50:59;;;;;;;23.83;9.38;;;13.70;99.90;;;;;;4975470;28;20042;-82
2022/05/17 03:53:25;;;;;;;26.15;9.80;;;13.70;99.90;;;;;;4958126;28;20118;-81
2022/05/17 03:55:50;;;;;;;23.80;9.30;;;13.80;99.90;;;;;;4957852;28;20035;-81
2022/05/17 03:58:16;;;;;;;28.80;10.30;;;13.80;99.90;;;;;;4975618;28;20035;-81
2022/05/17 04:00:42;;;;;;;24.42;9.40;;;13.70;99.90;;;;;;4957365;28;20446;-81
2022/05/17 04:03:08;;;;;;;20.85;9.15;;;13.70;99.90;;;;;;4958049;28;20050;-82
2022/05/17 04:05:34;;;;;;;24.42;10.75;;;13.70;99.90;;;;;;4957464;28;20499;-79
2022/05/17 04:08:00;;;;;;;25.15;9.73;;;13.70;99.90;;;;;;4957419;28;20050;-82
2022/05/17 04:10:26;;;;;;;26.10;10.10;;;13.70;99.90;;;;;;4957420;28;20047;-80
2022/05/17 04:12:52;;;;;;;25.17;9.63;;;13.70;99.90;;;;;;4957767;28;20066;-81
2022/05/17 04:15:23;;;;;;;27.63;9.90;;;13.80;99.90;;;;;;4956946;28;20042;-80
2022/05/17 04:17:50;;;;;;;20.35;8.98;;;13.70;99.90;;;;;;4957468;28;20483;-81
2022/05/17 04:20:16;;;;;;;21.55;8.88;;;13.80;99.90;;;;;;4957629;28;20035;-82
2022/05/17 04:22:47;;;;;;;19.77;9.30;;;13.80;99.90;;;;;;4974716;28;20039;-80
2022/05/17 04:25:17;;;;;;;23.98;9.52;;;13.80;99.90;;;;;;4974874;28;20039;-81
2022/05/17 04:27:43;;;;;;;24.65;10.07;;;13.80;99.90;;;;;;4957382;28;20043;-81
2022/05/17 04:30:10;;;;;;;21.92;9.20;;;13.80;99.90;;;;;;4957291;28;20045;-81
2022/05/17 04:32:36;;;;;;;19.60;9.60;;;13.80;99.90;;;;;;4958458;28;20050;-79
2022/05/17 04:35:01;;;;;;;25.10;9.27;;;13.90;99.90;;;;;;4959979;28;20122;-80
2022/05/17 04:37:28;;;;;;;18.20;8.85;;;13.90;99.90;;;;;;4945529;28;20074;-81
2022/05/17 04:39:54;;;;;;;22.98;8.65;;;13.90;99.90;;;;;;4962849;28;20055;-80
2022/05/17 04:42:19;;;;;;;18.63;8.05;;;14.00;99.90;;;;;;4958144;28;20099;-81
2022/05/17 04:44:45;;;;;;;19.13;7.85;;;14.00;99.90;;;;;;4976911;28;20042;-79
2022/05/17 04:47:11;;;;;;;18.05;7.88;;;14.00;99.90;;;;;;4959610;28;20133;-79
2022/05/17 04:49:37;;;;;;;19.50;8.10;;;14.10;99.90;;;;;;4957338;28;20062;-81
2022/05/17 04:52:03;;;;;;;15.70;7.95;;;14.20;99.90;;;;;;4940858;28;20038;-81
2022/05/17 04:54:29;;;;;;;19.33;7.38;;;14.20;99.90;;;;;;4956949;28;20042;-81
2022/05/17 04:56:54;;;;;;;18.70;6.78;;;14.30;99.90;;;;;;4957536;28;20050;-81
2022/05/17 04:59:20;;;;;;;16.52;7.18;;;14.40;99.90;;;;;;4974257;28;20078;-81
2022/05/17 05:01:47;;;;;;;17.40;7.07;;;14.40;99.90;;;;;;4956675;28;20046;-81
2022/05/17 05:04:13;;;;;;;22.20;7.15;;;14.50;99.90;;;;;;4974453;28;20034;-81
2022/05/17 05:06:38;;;;;;;12.63;6.30;;;14.60;99.90;;;;;;4956767;28;20134;-81
2022/05/17 05:09:04;;;;;;;20.00;7.03;;;14.70;99.90;;;;;;4957545;28;20387;-81
2022/05/17 05:11:30;;;;;;;16.05;6.13;;;14.70;99.90;;;;;;4956466;28;20043;-80
2022/05/17 05:13:55;;;;;;;21.02;6.80;;;14.80;99.90;;;;;;4957018;28;20045;-80
2022/05/17 05:16:21;;;;;;;15.43;6.32;;;14.80;99.90;;;;;;4956880;28;20070;-81
2022/05/17 05:18:46;;;;;;;13.73;6.18;;;14.90;99.90;;;;;;4956803;28;20454;-81
2022/05/17 05:21:14;;;;;;;18.50;6.00;;;14.90;99.90;;;;;;4957012;28;20089;-81
2022/05/17 05:23:41;;;;;;;18.60;6.47;;;15.00;99.90;;;;;;4956825;28;20380;-81
2022/05/17 05:26:08;;;;;;;16.83;6.03;;;15.10;99.90;;;;;;4957164;28;20074;-81
2022/05/17 05:28:34;;;;;;;20.48;6.82;;;15.10;99.90;;;;;;4960357;28;20078;-81
2022/05/17 05:31:00;;;;;;;12.93;5.22;;;15.20;99.90;;;;;;4960170;28;20078;-80
2022/05/17 05:33:26;;;;;;;17.23;5.70;;;15.20;99.90;;;;;;4960266;28;20081;-81
2022/05/17 05:35:52;;;;;;;22.67;5.97;;;15.20;99.90;;;;;;4960355;28;20069;-80
2022/05/17 05:38:18;;;;;;;15.35;5.07;;;15.20;99.90;;;;;;4960373;28;20370;-81
2022/05/17 05:40:44;;;;;;;17.83;5.38;;;15.20;99.90;;;;;;4960284;28;20059;-81
2022/05/17 05:43:10;;;;;;;17.90;5.75;;;15.30;99.90;;;;;;4960135;28;20043;-81
2022/05/17 05:45:36;;;;;;;17.17;5.05;;;15.30;99.90;;;;;;4960020;28;20383;-81
2022/05/17 05:48:02;;;;;;;12.80;4.10;;;15.40;99.90;;;;;;4977569;28;20050;-82
2022/05/17 05:50:28;;;;;;;17.90;5.30;;;15.40;99.90;;;;;;4959820;28;20047;-82
2022/05/17 05:53:05;;;;;;;11.48;3.63;;;15.50;99.90;;;;;;4960581;28;20046;-81
2022/05/17 05:55:31;;;;;;;20.33;4.95;;;15.50;99.90;;;;;;4959948;28;20495;-82
2022/05/17 05:57:57;;;;;;;14.40;4.90;;;15.50;99.90;;;;;;4959869;28;20082;-84
2022/05/17 06:00:23;;;;;;;13.23;4.65;;;15.50;99.90;;;;;;4960571;28;20082;-82
2022/05/17 06:02:48;;;;;;;13.82;4.90;;;15.50;99.90;;;;;;4977532;28;20035;-81
2022/05/17 06:05:15;;;;;;;12.95;4.78;;;15.50;99.90;;;;;;4977613;28;20042;-83
2022/05/17 06:07:41;;;;;;;14.77;4.70;;;15.60;99.90;;;;;;4977344;28;20074;-81
2022/05/17 06:10:07;;;;;;;15.52;4.93;;;15.60;99.90;;;;;;4959913;28;20074;-81
2022/05/17 06:12:33;;;;;;;16.58;5.03;;;15.60;99.90;;;;;;4959423;28;20476;-81
2022/05/17 06:14:58;;;;;;;17.17;6.00;;;15.60;99.90;;;;;;4977448;28;20066;-82
2022/05/17 06:17:27;;;;;;;17.88;5.95;;;15.60;99.90;;;;;;4960233;28;20035;-82
2022/05/17 06:19:57;;;;;;;16.27;5.28;;;15.60;99.90;;;;;;4977455;28;20035;-81
2022/05/17 06:22:24;;;;;;;19.67;5.18;;;15.60;99.90;;;;;;4976840;28;20118;-81
2022/05/17 06:24:50;;;;;;;16.23;5.20;;;15.60;99.90;;;;;;4959610;28;20043;-81
2022/05/17 06:27:16;;;;;;;12.60;5.03;;;15.60;99.90;;;;;;4959367;28;20514;-81
2022/05/17 06:29:42;;;;;;;21.00;6.72;;;15.60;99.90;;;;;;4977140;28;20046;-82
2022/05/17 06:32:12;;;;;;;19.88;5.55;;;15.70;99.90;;;;;;4959064;28;20085;-81
2022/05/17 06:34:39;;;;;;;17.00;5.40;;;15.70;99.90;;;;;;4959311;28;20074;-81
2022/05/17 06:37:05;;;;;;;14.32;4.78;;;15.80;99.90;;;;;;4959646;28;20171;-82
2022/05/17 06:39:31;;;;;;;14.93;5.63;;;15.80;99.90;;;;;;4958721;28;20051;-81
2022/05/17 06:41:57;;;;;;;19.90;6.30;;;15.80;99.90;;;;;;4976326;28;20070;-81
2022/05/17 06:44:23;;;;;;;16.20;5.68;;;15.80;99.90;;;;;;4958981;28;20494;-82
2022/05/17 06:46:49;;;;;;;17.52;5.32;;;15.90;99.90;;;;;;4959399;28;20395;-82
2022/05/17 06:49:16;;;;;;;17.52;5.50;;;15.90;99.90;;;;;;4976663;28;20054;-82
2022/05/17 06:51:42;;;;;;;13.80;5.80;;;15.90;99.90;;;;;;4958842;28;20047;-82
2022/05/17 06:54:08;;;;;;;18.02;6.07;;;16.00;99.90;;;;;;4976534;28;20035;-82
2022/05/17 06:56:34;;;;;;;16.98;5.53;;;16.00;99.90;;;;;;4976312;28;20098;-81
2022/05/17 06:59:00;;;;;;;16.23;5.50;;;16.00;99.90;;;;;;4958894;28;20417;-82
2022/05/17 07:01:26;;;;;;;16.30;4.88;;;16.00;99.90;;;;;;4958915;28;20130;-82
2022/05/17 07:03:51;;;;;;;16.70;5.93;;;16.10;99.90;;;;;;4976476;28;20041;-82
2022/05/17 07:06:17;;;;;;;13.85;5.13;;;16.20;99.90;;;;;;4975939;28;20121;-81
2022/05/17 07:08:43;;;;;;;18.10;5.40;;;16.20;99.90;;;;;;4959003;28;20439;-83
2022/05/17 07:13:54;;;;;;;14.45;5.45;;;16.30;99.90;;;;;;4958723;28;20046;-80
2022/05/17 07:16:21;;;;;;;13.40;4.82;;;16.40;99.90;;;;;;4959632;28;20050;-81
2022/05/17 07:18:47;;;;;;;20.77;5.40;;;16.50;99.90;;;;;;4958736;28;20478;-81
2022/05/17 07:21:14;;;;;;;16.02;5.18;;;16.50;99.90;;;;;;4942708;28;20035;-82
2022/05/17 07:23:42;;;;;;;15.57;4.70;;;16.60;99.90;;;;;;4942964;28;20487;-83
2022/05/17 07:26:09;;;;;;;16.55;5.68;;;16.60;99.90;;;;;;4958765;28;20043;-82
2022/05/17 07:28:48;;;;;;;17.55;5.47;;;16.70;99.90;;;;;;4959018;28;20420;-81
2022/05/17 07:31:14;;;;;;;10.27;3.80;;;16.70;99.90;;;;;;4958535;28;20129;-82
2022/05/17 07:33:40;;;;;;;13.73;5.25;;;16.80;99.90;;;;;;4942712;28;20127;-81
2022/05/17 07:36:07;;;;;;;16.67;5.07;;;16.90;99.90;;;;;;4958533;28;20046;-80
2022/05/17 07:38:34;;;;;;;14.93;4.38;;;17.00;99.90;;;;;;4959404;28;20476;-83
2022/05/17 07:41:00;;;;;;;18.15;4.10;;;17.00;99.90;;;;;;4958657;28;20055;-81
2022/05/17 07:43:25;;;;;;;16.17;5.35;;;17.10;99.90;;;;;;4958583;28;20053;-81
2022/05/17 07:45:51;;;;;;;12.50;4.53;;;17.10;99.90;;;;;;4958831;28;20074;-81
2022/05/17 07:48:21;;;;;;;14.63;4.50;;;17.20;99.90;;;;;;4958453;28;20046;-79
2022/05/17 07:50:49;;;;;;;13.60;4.28;;;17.30;99.90;;;;;;4974690;28;20053;-81
2022/05/17 07:53:17;;;;;;;14.68;3.95;;;17.40;99.90;;;;;;4976008;28;20398;-80
2022/05/17 07:55:44;;;;;;;14.35;4.70;;;17.50;99.90;;;;;;4958306;28;20118;-81
2022/05/17 07:58:11;;;;;;;11.93;3.80;;;17.50;99.90;;;;;;4958504;28;20439;-81
2022/05/17 08:00:38;;;;;;;12.35;3.83;;;17.60;99.90;;;;;;4957924;28;20126;-81
2022/05/17 08:03:04;;;;;;;11.85;4.00;;;17.70;99.90;;;;;;4958206;28;20050;-80
2022/05/17 08:05:31;;;;;;;17.40;3.60;;;17.80;99.90;;;;;;4975566;28;20169;-81
2022/05/17 08:07:57;;;;;;;11.60;3.28;;;17.90;99.90;;;;;;4958445;28;20474;-80
2022/05/17 08:10:23;;;;;;;14.23;3.10;;;18.00;99.90;;;;;;4958234;28;20505;-80
2022/05/17 08:12:49;;;;;;;10.90;2.90;;;18.10;99.90;;;;;;4958545;28;20038;-80
2022/05/17 08:15:16;;;;;;;11.90;3.38;;;18.20;99.90;;;;;;4958030;28;20512;-81
2022/05/17 08:17:41;;;;;;;10.52;2.97;;;18.30;99.90;;;;;;4957931;28;20047;-79
2022/05/17 08:20:09;;;;;;;11.35;2.63;;;18.30;99.90;;;;;;4975238;28;20340;-80
2022/05/17 08:22:45;;;;;;;9.85;2.17;;;18.40;99.90;;;;;;4958166;28;20086;-80
2022/05/17 08:27:58;;;;;;;8.85;3.03;;;18.50;99.90;;;;;;4958005;28;20055;-82
2022/05/17 08:30:25;;;;;;;14.93;3.45;;;18.60;99.90;;;;;;4974972;28;20395;-81
2022/05/17 08:33:15;;;;;;;11.50;3.10;;;18.70;99.90;;;;;;4957411;28;20042;-80
2022/05/17 08:35:53;;;;;;;10.93;3.13;;;18.80;99.90;;;;;;4957527;28;20045;-78
2022/05/17 08:38:29;;;;;;;10.10;2.67;;;18.90;99.90;;;;;;4958578;28;20335;-78
2022/05/17 08:41:24;;;;;;;10.43;2.60;;;19.00;99.90;;;;;;4942734;28;20118;-78
2022/05/17 08:43:52;;;;;;;12.95;2.13;;;19.10;99.90;;;;;;4959166;28;20054;-79
2022/05/17 08:46:26;;;;;;;9.60;2.13;;;19.30;99.90;;;;;;4958678;28;20567;-79
2022/05/17 08:49:18;;;;;;;11.13;2.17;;;19.40;99.90;;;;;;4959053;28;20042;-79
2022/05/17 08:51:51;;;;;;;9.10;2.63;;;19.50;99.90;;;;;;4957991;28;20061;-80
2022/05/17 08:54:21;;;;;;;10.13;2.53;;;19.60;99.90;;;;;;4957323;28;20491;-81
2022/05/17 08:56:57;;;;;;;9.45;1.90;;;19.60;99.90;;;;;;4957272;28;20123;-81
2022/05/17 08:59:24;;;;;;;8.80;2.25;;;19.60;99.90;;;;;;4957371;28;20050;-81
2022/05/17 09:01:57;;;;;;;8.27;2.17;;;19.80;99.90;;;;;;4976514;28;20104;-81
2022/05/17 09:04:49;;;;;;;8.85;1.80;;;19.70;99.90;;;;;;4961795;28;20043;-80
2022/05/17 09:07:34;;;;;;;7.60;1.85;;;19.60;99.90;;;;;;4961254;28;20483;-80
2022/05/17 09:10:18;;;;;;;11.60;2.00;;;19.50;99.90;;;;;;4961504;28;20046;-81
2022/05/17 09:12:43;;;;;;;8.35;1.77;;;19.80;99.90;;;;;;4960989;28;20050;-80
2022/05/17 09:15:12;;;;;;;9.68;1.70;;;20.00;99.90;;;;;;4961073;28;20042;-80
2022/05/17 09:17:38;;;;;;;10.15;1.60;;;19.90;99.90;;;;;;4960992;28;20113;-80
2022/05/17 09:20:05;;;;;;;10.15;1.70;;;20.00;99.90;;;;;;4960996;28;20184;-81
2022/05/17 09:22:30;;;;;;;9.38;2.00;;;20.20;99.90;;;;;;4960804;28;20050;-81
2022/05/17 09:24:58;;;;;;;7.75;1.95;;;20.40;99.90;;;;;;4960875;28;20043;-80
2022/05/17 09:27:36;;;;;;;7.72;1.75;;;20.60;99.90;;;;;;4960825;28;20159;-80
2022/05/17 09:30:13;;;;;;;11.52;1.98;;;20.60;99.90;;;;;;4960866;28;20097;-80
2022/05/17 09:32:44;;;;;;;11.63;2.00;;;20.70;99.90;;;;;;4960551;28;20039;-81
2022/05/17 09:35:21;;;;;;;8.05;1.92;;;20.80;99.90;;;;;;4944566;28;20125;-81
2022/05/17 09:37:53;;;;;;;10.90;1.55;;;20.70;99.90;;;;;;4960898;28;20054;-81
2022/05/17 09:40:40;;;;;;;6.53;1.40;;;20.50;99.90;;;;;;4978138;28;20046;-81
2022/05/17 09:43:09;;;;;;;7.13;1.40;;;20.50;99.90;;;;;;4960703;28;20053;-80
2022/05/17 09:45:45;;;;;;;13.25;2.20;;;20.40;99.90;;;;;;4960969;28;20050;-80
2022/05/17 09:48:13;;;;;;;7.75;1.40;;;20.40;99.90;;;;;;4978080;28;20089;-80
2022/05/17 09:53:49;;;;;;;9.13;1.80;;;20.20;99.90;;;;;;4960375;28;20038;-81
2022/05/17 09:56:16;;;;;;;6.65;1.50;;;20.20;99.90;;;;;;4960034;28;20031;-81
2022/05/17 09:58:44;;;;;;;6.35;1.70;;;20.20;99.90;;;;;;4960248;28;20510;-81
2022/05/17 10:01:26;;;;;;;8.82;2.08;;;20.30;99.90;;;;;;4943749;28;20038;-81
2022/05/17 10:04:02;;;;;;;8.57;1.75;;;20.10;99.90;;;;;;4960311;28;20055;-80
2022/05/17 10:06:37;;;;;;;8.43;1.52;;;20.20;99.90;;;;;;4960368;28;20050;-80
2022/05/17 10:09:12;;;;;;;6.93;2.03;;;20.20;99.90;;;;;;4959897;28;20113;-80
2022/05/17 10:11:41;;;;;;;;;;;20.40;99.90;;;;;;4977767;28;20089;-80
2022/05/17 10:14:19;;;;;;;9.38;1.67;;;20.60;99.90;;;;;;4959045;28;19969;-80
2022/05/17 10:16:53;;;;;;;8.60;1.63;;;20.90;99.90;;;;;;4959589;28;20047;-81
2022/05/17 10:19:26;;;;;;;8.07;2.17;;;21.10;99.90;;;;;;4959580;28;20038;-80
2022/05/17 10:22:04;;;;;;;7.63;1.55;;;21.30;99.90;;;;;;4959668;28;20050;-81
2022/05/17 10:24:45;;;;;;;10.30;1.58;;;21.60;99.90;;;;;;4944336;28;20093;-81
2022/05/17 10:27:21;;;;;;;12.23;1.90;;;21.80;99.90;;;;;;4959814;28;20047;-80
2022/05/17 10:29:52;;;;;;;10.27;1.77;;;21.70;99.90;;;;;;4959724;28;20039;-80
2022/05/17 10:32:43;;;;;;;8.98;1.80;;;21.90;99.90;;;;;;4959782;28;20051;-80
2022/05/17 10:35:15;;;;;;;7.18;1.75;;;22.00;99.90;;;;;;4962630;28;20058;-77
2022/05/17 10:38:21;;;;;;;6.53;1.90;;;22.10;99.90;;;;;;4963013;28;20050;-77
2022/05/17 10:40:50;;;;;;;7.00;1.30;;;22.30;99.90;;;;;;4962764;28;20090;-79
2022/05/17 10:43:17;;;;;;;6.60;1.65;;;22.50;99.90;;;;;;4960952;28;20086;-79
2022/05/17 10:45:55;;;;;;;6.43;1.40;;;22.50;99.90;;;;;;4943906;28;20466;-81
2022/05/17 10:48:36;;;;;;;9.48;1.95;;;22.50;99.90;;;;;;4959476;28;20560;-81
2022/05/17 10:51:44;;;;;;;7.80;1.70;;;22.20;99.90;;;;;;4959412;28;20447;-79
2022/05/17 10:54:42;;;;;;;9.85;1.95;;;22.20;99.90;;;;;;4959546;28;20054;-81
2022/05/17 10:57:25;;;;;;;8.85;2.00;;;22.40;99.90;;;;;;4948646;28;20141;-79
2022/05/17 11:00:09;;;;;;;8.40;1.83;;;22.40;99.90;;;;;;4958903;28;20117;-79
2022/05/17 11:03:07;;;;;;;9.18;1.50;;;22.70;99.90;;;;;;4975989;28;20074;-79
2022/05/17 11:05:54;;;;;;;8.70;1.58;;;22.80;99.90;;;;;;4930024;28;20065;-80
2022/05/17 11:08:57;;;;;;;9.25;2.20;;;22.70;99.90;;;;;;4959294;28;20043;-80
2022/05/17 11:11:47;;;;;;;6.88;1.67;;;22.70;99.90;;;;;;4956397;28;20062;-79
2022/05/17 11:14:37;;;;;;;9.63;2.10;;;22.70;99.90;;;;;;4958715;28;20046;-81
2022/05/17 11:17:21;;;;;;;6.63;1.90;;;22.80;99.90;;;;;;4958620;28;20050;-81
2022/05/17 11:19:57;;;;;;;8.02;1.98;;;22.80;99.90;;;;;;4958663;28;20506;-80
2022/05/17 11:22:36;;;;;;;8.25;2.20;;;22.70;99.90;;;;;;4958579;28;20046;-82
2022/05/17 11:25:23;;;;;;;11.57;2.33;;;22.40;99.90;;;;;;4976766;28;20043;-81
2022/05/17 11:28:18;;;;;;;9.85;2.38;;;22.40;99.90;;;;;;4958600;28;20105;-81
2022/05/17 11:31:13;;;;;;;10.18;2.25;;;22.50;99.90;;;;;;4951341;28;20101;-80
2022/05/17 11:33:40;;;;;;;;;;;22.60;99.90;;;;;;4959723;28;20039;-80
2022/05/17 11:36:31;;;;;;;12.52;2.70;;;22.50;99.90;;;;;;4958929;28;19924;-80
2022/05/17 11:38:57;;;;;;;12.00;2.60;;;22.70;99.90;;;;;;4958260;28;20483;-80
2022/05/17 11:41:42;;;;;;;7.60;1.92;;;23.10;99.90;;;;;;4958320;28;20057;-79
2022/05/17 11:44:21;;;;;;;10.80;2.45;;;23.60;99.90;;;;;;4957986;28;20062;-81
2022/05/17 11:46:54;;;;;;;8.60;2.28;;;23.70;99.90;;;;;;4958303;28;20089;-80
2022/05/17 11:49:32;;;;;;;9.30;2.78;;;23.90;99.90;;;;;;4958787;28;20045;-81
2022/05/17 11:51:57;;;;;;;10.95;2.40;;;23.90;99.90;;;;;;4958146;28;20415;-78
2022/05/17 11:54:44;;;;;;;7.85;2.15;;;23.70;99.90;;;;;;4957929;28;20038;-80
2022/05/17 11:57:30;;;;;;;10.82;2.38;;;23.50;99.90;;;;;;4958019;28;20046;-80
2022/05/17 12:00:06;;;;;;;6.60;1.83;;;23.40;99.90;;;;;;4944537;28;20467;-79
2022/05/17 12:02:53;;;;;;;10.27;2.28;;;23.50;99.90;;;;;;4975366;28;20038;-79
2022/05/17 12:05:37;;;;;;;8.13;1.90;;;23.70;99.90;;;;;;4975158;28;20038;-79
2022/05/17 12:08:39;;;;;;;8.50;2.20;;;23.80;99.90;;;;;;4957448;28;20082;-81
2022/05/17 12:11:14;;;;;;;10.70;2.22;;;23.90;99.90;;;;;;4957408;28;20130;-80
2022/05/17 12:14:01;;;;;;;7.82;2.05;;;24.10;99.90;;;;;;4957513;28;20108;-82
2022/05/17 12:16:31;;;;;;;8.75;2.00;;;24.30;99.90;;;;;;4958044;28;20391;-83
2022/05/17 12:19:00;;;;;;;9.00;1.90;;;24.50;99.90;;;;;;4957860;28;20058;-80
2022/05/17 12:22:03;;;;;;;6.25;1.88;;;24.30;99.90;;;;;;4974909;28;20066;-80
2022/05/17 12:24:57;;;;;;;9.35;1.95;;;24.10;99.90;;;;;;4957386;28;20046;-79
2022/05/17 12:27:31;;;;;;;7.22;1.77;;;24.40;99.90;;;;;;4975059;28;20443;-81
2022/05/17 12:33:11;;;;;;;6.22;1.77;;;24.60;99.90;;;;;;4951754;28;20051;-80
2022/05/17 12:35:38;;;;;;;6.30;1.70;;;24.90;99.90;;;;;;4956959;28;20506;-79
2022/05/17 12:43:02;;;;;;;10.48;1.90;;;24.90;99.90;;;;;;4957370;28;20455;-80
2022/05/17 12:43:36;;;;;;;9.23;1.95;;;24.20;99.90;;;;;;4937931;28;20454;-80
2022/05/17 12:46:23;;;;;;;5.75;1.60;;;24.30;99.90;;;;;;4957242;28;20055;-81
2022/05/17 12:48:50;;;;;;;6.40;1.73;;;24.00;99.90;;;;;;4958846;28;20054;-81
2022/05/17 12:51:19;;;;;;;9.25;2.10;;;24.00;99.90;;;;;;4941539;28;20039;-82
2022/05/17 12:53:55;;;;;;;9.27;1.83;;;23.70;99.90;;;;;;4957987;28;20085;-81
2022/05/17 12:56:20;;;;;;;6.10;2.25;;;23.50;99.90;;;;;;4957163;28;20038;-81
2022/05/17 12:58:56;;;;;;;8.13;2.10;;;23.80;99.90;;;;;;4941459;28;20094;-79
2022/05/17 13:01:25;;;;;;;6.35;1.58;;;24.10;99.90;;;;;;4957003;28;20579;-80
2022/05/17 13:03:54;;;;;;;7.65;1.90;;;24.30;99.90;;;;;;4941389;28;20074;-80
2022/05/17 13:06:19;;;;;;;6.82;1.50;;;24.70;99.90;;;;;;4941822;28;20042;-80
2022/05/17 13:08:46;;;;;;;6.28;1.67;;;24.80;99.90;;;;;;4956891;28;20159;-80
2022/05/17 13:11:23;;;;;;;9.85;2.13;;;24.70;99.90;;;;;;4956912;28;20047;-79
2022/05/17 13:13:49;;;;;;;7.60;2.42;;;24.70;99.90;;;;;;4974706;28;20035;-80
2022/05/17 13:16:25;;;;;;;8.98;2.10;;;24.80;99.90;;;;;;4958149;28;20049;-81
2022/05/17 13:19:00;;;;;;;8.50;2.05;;;24.80;99.90;;;;;;4956959;28;20495;-81
2022/05/17 13:21:32;;;;;;;9.85;2.40;;;25.00;99.90;;;;;;4956907;28;20047;-80
2022/05/17 13:24:40;;;;;;;9.25;2.00;;;24.90;99.90;;;;;;4957026;28;20129;-81
2022/05/17 13:27:28;;;;;;;12.25;2.33;;;24.70;99.50;;;;;;4949904;28;20129;-80
2022/05/17 13:30:36;;;;;;;9.85;2.20;;;24.80;99.90;;;;;;4956715;28;20074;-80
2022/05/17 13:33:03;;;;;;;10.50;2.08;;;24.90;99.90;;;;;;4955129;28;20058;-80
2022/05/17 13:35:34;;;;;;;10.70;2.60;;;24.90;99.90;;;;;;4956979;28;20082;-80
2022/05/17 13:38:17;;;;;;;6.55;2.15;;;24.70;99.90;;;;;;4940696;28;20098;-81
2022/05/17 13:40:46;;;;;;;7.13;1.95;;;24.50;99.90;;;;;;4973878;28;20177;-81
2022/05/17 13:43:38;;;;;;;8.25;2.85;;;24.20;99.90;;;;;;4940540;28;20098;-80
2022/05/17 13:46:09;;;;;;;7.38;2.17;;;24.20;99.90;;;;;;4956544;28;20133;-79
2022/05/17 13:48:41;;;;;;;7.53;2.40;;;24.10;99.90;;;;;;4941787;28;20050;-80
2022/05/17 13:51:11;;;;;;;7.35;2.15;;;24.10;99.90;;;;;;4959798;28;20050;-80
2022/05/17 13:53:43;;;;;;;10.70;2.97;;;24.30;99.90;;;;;;4960262;28;20501;-80
2022/05/17 13:56:09;;;;;;;8.95;2.65;;;24.70;99.90;;;;;;4960564;28;20114;-81
2022/05/17 13:58:36;;;;;;;9.60;2.63;;;25.10;99.90;;;;;;4977332;28;20502;-80
2022/05/17 14:01:23;;;;;;;7.68;2.33;;;25.40;99.90;;;;;;4960025;28;20038;-80
2022/05/17 14:04:09;;;;;;;7.20;2.40;;;25.60;99.90;;;;;;4960013;28;20047;-80
2022/05/17 14:06:48;;;;;;;7.28;1.85;;;25.50;99.90;;;;;;4959365;28;20585;-79
2022/05/17 14:12:00;;;;;;;9.15;2.50;;;25.00;99.90;;;;;;4977393;28;20042;-81
2022/05/17 14:14:26;;;;;;;6.97;2.20;;;24.80;99.90;;;;;;4960068;28;20113;-81
2022/05/17 14:17:00;;;;;;;8.05;1.90;;;24.50;99.90;;;;;;4961065;28;20039;-81
2022/05/17 14:19:28;;;;;;;6.60;2.03;;;24.50;99.90;;;;;;4977050;28;20156;-80
2022/05/17 14:21:59;;;;;;;8.23;2.15;;;24.40;99.90;;;;;;4959732;28;20654;-81
2022/05/17 14:24:25;;;;;;;11.00;2.10;;;24.10;99.90;;;;;;4959787;28;20077;-81
2022/05/17 14:26:56;;;;;;;7.93;2.35;;;24.10;99.90;;;;;;4960749;28;20379;-81
2022/05/17 14:29:25;;;;;;;8.57;2.70;;;23.90;99.90;;;;;;4977113;28;20042;-80
2022/05/17 14:31:51;;;;;;;7.88;2.40;;;23.80;99.90;;;;;;4976466;28;20042;-80
2022/05/17 14:34:21;;;;;;;6.70;2.08;;;23.70;99.90;;;;;;4959104;28;20380;-80
2022/05/17 14:36:47;;;;;;;6.68;2.10;;;23.80;99.90;;;;;;4943763;28;20513;-80
2022/05/17 14:39:13;;;;;;;5.68;2.22;;;24.00;99.90;;;;;;4959378;28;20078;-80
2022/05/17 14:41:42;;;;;;;7.93;2.72;;;24.10;99.90;;;;;;4959681;28;20039;-80
2022/05/17 14:44:09;;;;;;;7.03;2.00;;;24.20;99.90;;;;;;4959138;28;20110;-80
2022/05/17 14:46:35;;;;;;;6.00;2.15;;;24.00;99.90;;;;;;4944246;28;20403;-80
2022/05/17 14:49:01;;;;;;;6.38;2.00;;;24.00;99.90;;;;;;4959051;28;20042;-80
2022/05/17 14:51:28;;;;;;;6.38;2.25;;;23.90;99.90;;;;;;4958922;28;20077;-80
2022/05/17 14:53:54;;;;;;;7.32;2.25;;;23.90;99.90;;;;;;4958990;28;20066;-81
2022/05/17 14:56:20;;;;;;;6.05;2.10;;;23.90;99.90;;;;;;4959096;28;20043;-81
2022/05/17 14:58:47;;;;;;;11.13;2.90;;;23.90;99.90;;;;;;4958626;28;20078;-79
2022/05/17 15:01:15;;;;;;;6.53;2.15;;;24.00;99.90;;;;;;4958940;28;20122;-81
2022/05/17 15:03:45;;;;;;;4.90;2.20;;;24.10;99.90;;;;;;4976019;28;20507;-80
2022/05/17 15:06:13;;;;;;;5.97;2.45;;;24.30;99.90;;;;;;4942536;28;20050;-81
2022/05/17 15:08:39;;;;;;;5.03;2.30;;;24.60;99.90;;;;;;4958935;28;20078;-79
2022/05/17 15:11:08;;;;;;;7.93;2.95;;;24.80;99.90;;;;;;4958684;28;20540;-80
2022/05/17 15:13:34;;;;;;;9.38;3.20;;;25.00;99.90;;;;;;4942743;28;20510;-80
2022/05/17 15:16:02;;;;;;;7.35;2.67;;;24.90;99.90;;;;;;4976076;28;20035;-80
2022/05/17 15:18:31;;;;;;;8.13;2.40;;;24.60;99.90;;;;;;4958474;28;20491;-81
2022/05/17 15:20:57;;;;;;;6.10;2.13;;;24.40;99.90;;;;;;4958332;28;20061;-81
2022/05/17 15:23:31;;;;;;;10.00;2.72;;;24.30;99.90;;;;;;4942680;28;20034;-80
2022/05/17 15:25:58;;;;;;;4.72;2.35;;;24.30;99.90;;;;;;4958398;28;20058;-81
2022/05/17 15:28:24;;;;;;;6.25;1.65;;;24.00;99.90;;;;;;4958292;28;20046;-80
2022/05/17 15:30:49;;;;;;;9.30;3.08;;;23.90;99.90;;;;;;4958348;28;20035;-80
2022/05/17 15:33:16;;;;;;;6.75;2.05;;;24.00;99.90;;;;;;4958130;28;20483;-80
2022/05/17 15:35:42;;;;;;;7.95;2.58;;;24.20;99.90;;;;;;4958441;28;20126;-81
2022/05/17 15:38:21;;;;;;;6.10;2.25;;;24.10;99.90;;;;;;4958049;28;20042;-81
2022/05/17 15:40:46;;;;;;;6.03;2.42;;;24.10;99.90;;;;;;4958106;28;20046;-81
2022/05/17 15:43:12;;;;;;;9.65;2.58;;;24.10;99.90;;;;;;4958157;28;20031;-80
2022/05/17 15:45:38;;;;;;;5.32;1.95;;;24.00;99.90;;;;;;4957900;28;20380;-80
2022/05/17 15:53:38;;;;;;;5.40;2.03;;;23.90;99.90;;;;;;4957910;28;20055;-81
2022/05/17 15:56:08;;;;;;;6.85;2.42;;;24.10;99.90;;;;;;4957920;28;20065;-80
2022/05/17 15:58:39;;;;;;;8.05;2.30;;;24.20;99.90;;;;;;4941755;28;20043;-80
2022/05/17 16:01:08;;;;;;;6.90;2.05;;;24.30;99.90;;;;;;4957365;28;20150;-79
2022/05/17 16:03:47;;;;;;;7.63;2.35;;;24.40;99.90;;;;;;4974939;28;20497;-79
2022/05/17 16:06:14;;;;;;;6.63;2.40;;;24.30;99.90;;;;;;4957410;28;20052;-80
2022/05/17 16:08:40;;;;;;;6.13;1.75;;;24.40;99.90;;;;;;4957586;28;20050;-80
2022/05/17 16:13:51;;;;;;;10.07;2.28;;;24.80;99.90;;;;;;4957600;28;20483;-81
2022/05/17 16:16:18;;;;;;;6.10;2.30;;;24.90;99.90;;;;;;4974798;28;20049;-80
2022/05/17 16:18:47;;;;;;;5.75;2.40;;;24.80;99.90;;;;;;4975165;28;20091;-81
2022/05/17 16:21:13;;;;;;;6.97;2.10;;;24.50;99.90;;;;;;4957402;28;20058;-79
2022/05/17 16:23:38;;;;;;;7.68;3.05;;;24.40;99.90;;;;;;4957501;28;20403;-80
2022/05/17 16:26:04;;;;;;;5.75;2.67;;;24.30;99.90;;;;;;4957806;28;20128;-80
2022/05/17 16:28:31;;;;;;;7.10;2.75;;;24.10;99.90;;;;;;4957269;28;20082;-80